createdAt,value
2023-04-04T00:00:52.021Z,1.68
2023-04-04T00:05:47.216Z,1.63
2023-04-04T00:08:14.190Z,1.64
2023-04-04T00:10:44.260Z,1.59
2023-04-04T00:15:46.969Z,1.64
2023-04-04T00:18:17.835Z,1.61
2023-04-04T00:20:46.106Z,1.66
2023-04-04T00:23:15.369Z,1.69
2023-04-04T00:25:49.776Z,1.68
2023-04-04T00:28:19.624Z,1.63
2023-04-04T00:30:48.489Z,1.61
2023-04-04T00:33:18.505Z,1.63
2023-04-04T00:35:48.537Z,1.65
2023-04-04T00:38:18.470Z,1.66
2023-04-04T00:40:48.614Z,1.62
2023-04-04T00:43:17.249Z,1.61
2023-04-04T00:45:46.545Z,1.65
2023-04-04T00:48:15.725Z,1.69
2023-04-04T00:50:43.847Z,1.70
2023-04-04T00:53:12.558Z,1.68
2023-04-04T00:55:42.688Z,1.69
2023-04-04T00:58:10.907Z,1.68
2023-04-04T01:00:42.073Z,1.67
2023-04-04T01:03:24.755Z,1.63
2023-04-04T01:05:55.092Z,1.65
2023-04-04T01:08:25.897Z,1.59
2023-04-04T01:10:57.464Z,1.61
2023-04-04T01:13:27.195Z,1.61
2023-04-04T01:15:56.103Z,1.59
2023-04-04T01:18:24.595Z,1.61
2023-04-04T01:21:12.450Z,1.65
2023-04-04T01:24:02.301Z,1.60
2023-04-04T01:26:44.013Z,1.55
2023-04-04T01:29:12.364Z,1.52
2023-04-04T01:31:43.266Z,1.53
2023-04-04T01:34:54.806Z,1.52
2023-04-04T01:37:30.788Z,1.51
2023-04-04T01:40:28.238Z,1.48
2023-04-04T01:42:57.423Z,1.53
2023-04-04T01:45:26.417Z,1.55
2023-04-04T01:47:55.157Z,1.53
2023-04-04T01:50:24.919Z,1.44
2023-04-04T01:52:53.240Z,1.43
2023-04-04T01:55:22.958Z,1.46
2023-04-04T01:57:52.554Z,1.47
2023-04-04T02:00:20.957Z,1.43
2023-04-04T02:02:49.341Z,1.45
2023-04-04T02:05:17.902Z,1.52
2023-04-04T02:07:52.831Z,1.55
2023-04-04T02:10:26.840Z,1.51
2023-04-04T02:12:55.128Z,1.47
2023-04-04T02:15:25.274Z,1.46
2023-04-04T02:17:54.736Z,1.48
2023-04-04T02:20:24.039Z,1.41
2023-04-04T02:22:54.750Z,1.42
2023-04-04T02:25:24.450Z,1.42
2023-04-04T02:27:54.746Z,1.36
2023-04-04T02:30:23.495Z,1.34
2023-04-04T02:32:53.139Z,1.33
2023-04-04T02:35:22.034Z,1.33
2023-04-04T02:37:52.120Z,1.36
2023-04-04T02:40:42.855Z,1.36
2023-04-04T02:43:12.898Z,1.31
2023-04-04T02:45:41.936Z,1.30
2023-04-04T02:48:21.610Z,1.30
2023-04-04T02:50:52.683Z,1.31
2023-04-04T02:53:22.444Z,1.26
2023-04-04T02:55:52.450Z,1.26
2023-04-04T02:58:22.622Z,1.31
2023-04-04T03:00:55.471Z,1.27
2023-04-04T03:03:27.605Z,1.28
2023-04-04T03:05:57.265Z,1.33
2023-04-04T03:08:28.090Z,1.34
2023-04-04T03:10:59.070Z,1.29
2023-04-04T03:13:27.473Z,1.28
2023-04-04T03:16:03.523Z,1.29
2023-04-04T03:18:37.373Z,1.25
2023-04-04T03:21:12.290Z,1.27
2023-04-04T03:23:42.801Z,1.27
2023-04-04T03:26:11.061Z,1.27
2023-04-04T03:28:40.628Z,1.31
2023-04-04T03:31:09.777Z,1.36
2023-04-04T03:33:43.924Z,1.36
2023-04-04T03:36:13.104Z,1.33
2023-04-04T03:38:44.747Z,1.36
2023-04-04T03:41:13.133Z,1.41
2023-04-04T03:43:41.648Z,1.36
2023-04-04T03:46:10.845Z,1.32
2023-04-04T03:48:39.326Z,1.31
2023-04-04T03:51:11.266Z,1.27
2023-04-04T03:53:40.000Z,1.27
2023-04-04T03:56:12.801Z,1.24
2023-04-04T03:58:42.389Z,1.23
2023-04-04T04:01:12.802Z,1.22
2023-04-04T04:03:44.467Z,1.22
2023-04-04T04:06:12.877Z,1.21
2023-04-04T04:08:40.907Z,1.22
2023-04-04T04:11:12.390Z,1.21
2023-04-04T04:13:41.546Z,1.20
2023-04-04T04:16:09.995Z,1.21
2023-04-04T04:18:39.297Z,1.23
2023-04-04T04:21:11.931Z,1.21
2023-04-04T04:23:43.149Z,1.21
2023-04-04T04:26:11.544Z,1.25
2023-04-04T04:28:40.689Z,1.31
2023-04-04T04:31:13.703Z,1.26
2023-04-04T04:33:44.899Z,1.23
2023-04-04T04:36:16.196Z,1.22
2023-04-04T04:38:58.274Z,1.22
2023-04-04T04:41:29.928Z,1.17
2023-04-04T04:44:00.334Z,1.16
2023-04-04T04:46:30.003Z,1.19
2023-04-04T04:49:06.387Z,1.25
2023-04-04T04:51:36.309Z,1.25
2023-04-04T04:54:04.479Z,1.23
2023-04-04T04:56:33.304Z,1.24
2023-04-04T04:59:09.125Z,1.26
2023-04-04T05:01:43.925Z,1.26
2023-04-04T05:04:12.155Z,1.27
2023-04-04T05:06:45.398Z,1.31
2023-04-04T05:09:14.762Z,1.31
2023-04-04T05:11:47.772Z,1.26
2023-04-04T05:14:16.492Z,1.28
2023-04-04T05:16:53.601Z,1.30
2023-04-04T05:19:24.144Z,1.30
2023-04-04T05:21:54.211Z,1.26
2023-04-04T05:24:35.793Z,1.29
2023-04-04T05:27:05.055Z,1.31
2023-04-04T05:29:39.554Z,1.28
2023-04-04T05:32:09.826Z,1.21
2023-04-04T05:34:41.022Z,1.21
2023-04-04T05:37:11.882Z,1.27
2023-04-04T05:39:49.334Z,1.25
2023-04-04T05:42:17.748Z,1.27
2023-04-04T05:44:50.552Z,1.29
2023-04-04T05:47:21.967Z,1.24
2023-04-04T05:49:51.998Z,1.21
2023-04-04T05:52:20.463Z,1.21
2023-04-04T05:54:51.373Z,1.20
2023-04-04T05:57:26.695Z,1.17
2023-04-04T06:00:05.760Z,1.19
2023-04-04T06:02:44.710Z,1.21
2023-04-04T06:05:18.647Z,1.28
2023-04-04T06:07:47.669Z,1.33
2023-04-04T06:10:16.041Z,1.30
2023-04-04T06:12:45.670Z,1.35
2023-04-04T06:15:14.330Z,1.31
2023-04-04T06:17:45.452Z,1.32
2023-04-04T06:20:13.717Z,1.39
2023-04-04T06:22:44.740Z,1.38
2023-04-04T06:25:14.680Z,1.39
2023-04-04T06:27:44.111Z,1.42
2023-04-04T06:30:14.754Z,1.41
2023-04-04T06:32:46.265Z,1.47
2023-04-04T06:35:20.288Z,1.48
2023-04-04T06:38:07.497Z,1.46
2023-04-04T06:40:38.263Z,1.44
2023-04-04T06:43:06.772Z,1.46
2023-04-04T06:45:46.659Z,1.49
2023-04-04T06:48:15.872Z,1.50
2023-04-04T06:50:44.034Z,1.45
2023-04-04T06:53:17.358Z,1.48
2023-04-04T06:55:45.809Z,1.46
2023-04-04T06:58:19.905Z,1.40
2023-04-04T07:00:49.548Z,1.35
2023-04-04T07:03:18.476Z,1.36
2023-04-04T07:05:46.753Z,1.34
2023-04-04T07:08:18.658Z,1.32
2023-04-04T07:10:47.138Z,1.32
2023-04-04T07:13:16.870Z,1.31
2023-04-04T07:15:51.190Z,1.34
2023-04-04T07:18:19.852Z,1.43
2023-04-04T07:20:51.790Z,1.43
2023-04-04T07:23:26.128Z,1.39
2023-04-04T07:25:57.171Z,1.40
2023-04-04T07:28:25.503Z,1.34
2023-04-04T07:31:03.575Z,1.31
2023-04-04T07:33:32.550Z,1.33
2023-04-04T07:36:03.699Z,1.38
2023-04-04T07:38:34.879Z,1.45
2023-04-04T07:41:04.295Z,1.51
2023-04-04T07:43:33.971Z,1.62
2023-04-04T07:46:02.621Z,1.70
2023-04-04T07:48:31.113Z,1.77
2023-04-04T07:51:04.876Z,1.82
2023-04-04T07:53:33.169Z,1.84
2023-04-04T07:56:06.457Z,1.85
2023-04-04T07:58:37.666Z,1.88
2023-04-04T08:01:05.811Z,1.83
2023-04-04T08:03:36.344Z,1.88
2023-04-04T08:06:04.612Z,1.92
2023-04-04T08:08:32.699Z,1.90
2023-04-04T08:11:04.057Z,1.90
2023-04-04T08:13:32.884Z,1.90
2023-04-04T08:16:01.347Z,1.89
2023-04-04T08:18:31.993Z,1.90
2023-04-04T08:21:01.046Z,1.93
2023-04-04T08:23:30.645Z,1.91
2023-04-04T08:26:00.325Z,1.97
2023-04-04T08:28:28.563Z,1.98
2023-04-04T08:30:57.108Z,1.99
2023-04-04T08:33:40.836Z,2.02
2023-04-04T08:36:16.292Z,1.98
2023-04-04T08:38:47.842Z,1.91
2023-04-04T08:41:16.137Z,1.87
2023-04-04T08:43:54.489Z,1.92
2023-04-04T08:46:25.642Z,2.00
2023-04-04T08:48:55.820Z,1.99
2023-04-04T08:51:23.925Z,2.04
2023-04-04T08:53:54.880Z,2.09
2023-04-04T08:56:23.902Z,2.06
2023-04-04T08:58:52.149Z,2.05
2023-04-04T09:01:20.506Z,2.14
2023-04-04T09:03:59.100Z,2.20
2023-04-04T09:06:28.052Z,2.21
2023-04-04T09:08:57.614Z,2.26
2023-04-04T09:11:26.342Z,2.31
2023-04-04T09:13:54.712Z,2.31
2023-04-04T09:16:23.595Z,2.36
2023-04-04T09:18:53.035Z,2.51
2023-04-04T09:21:21.453Z,2.62
2023-04-04T09:23:59.720Z,2.70
2023-04-04T09:26:27.816Z,2.81
2023-04-04T09:28:56.957Z,2.85
2023-04-04T09:31:26.110Z,2.88
2023-04-04T09:33:54.223Z,2.96
2023-04-04T09:36:22.551Z,3.00
2023-04-04T09:38:51.972Z,2.99
2023-04-04T09:41:20.885Z,3.06
2023-04-04T09:43:49.422Z,3.12
2023-04-04T09:46:21.434Z,3.20
2023-04-04T09:48:55.443Z,3.30
2023-04-04T09:51:23.622Z,3.38
2023-04-04T09:53:51.936Z,3.39
2023-04-04T09:56:20.185Z,3.38
2023-04-04T09:59:02.585Z,3.44
2023-04-04T10:01:34.161Z,3.45
2023-04-04T10:04:03.753Z,3.35
2023-04-04T10:06:32.636Z,3.35
2023-04-04T10:09:01.415Z,3.42
2023-04-04T10:11:34.403Z,3.57
2023-04-04T10:14:06.851Z,3.68
2023-04-04T10:16:38.316Z,3.70
2023-04-04T10:19:10.184Z,3.80
2023-04-04T10:21:43.396Z,3.85
2023-04-04T10:24:12.165Z,3.83
2023-04-04T10:26:40.658Z,3.85
2023-04-04T10:29:10.847Z,3.86
2023-04-04T10:31:41.003Z,3.94
2023-04-04T10:34:20.684Z,4.01
2023-04-04T10:36:51.359Z,3.98
2023-04-04T10:39:27.537Z,3.97
2023-04-04T10:41:56.963Z,4.03
2023-04-04T10:44:34.032Z,4.01
2023-04-04T10:47:17.960Z,4.04
2023-04-04T10:49:47.346Z,4.07
2023-04-04T10:52:17.654Z,4.00
2023-04-04T10:54:45.780Z,4.00
2023-04-04T10:57:16.985Z,3.99
2023-04-04T11:00:02.314Z,3.96
2023-04-04T11:02:47.473Z,3.97
2023-04-04T11:05:22.856Z,3.99
2023-04-04T11:08:10.888Z,3.96
2023-04-04T11:10:58.076Z,4.06
2023-04-04T11:13:35.922Z,4.13
2023-04-04T11:16:09.932Z,4.12
2023-04-04T11:18:41.788Z,4.20
2023-04-04T11:21:15.113Z,4.27
2023-04-04T11:24:09.303Z,4.25
2023-04-04T11:26:39.724Z,4.25
2023-04-04T11:29:09.069Z,4.28
2023-04-04T11:31:48.041Z,4.27
2023-04-04T11:34:37.407Z,4.26
2023-04-04T11:37:18.312Z,4.24
2023-04-04T11:39:59.062Z,4.21
2023-04-04T11:42:34.039Z,4.18
2023-04-04T11:45:07.668Z,4.18
2023-04-04T11:47:36.112Z,4.28
2023-04-04T11:50:08.380Z,4.33
2023-04-04T11:52:38.385Z,4.30
2023-04-04T11:55:20.368Z,4.30
2023-04-04T11:57:51.549Z,4.29
2023-04-04T12:00:32.321Z,4.28
2023-04-04T12:03:01.283Z,4.30
2023-04-04T12:05:30.888Z,4.27
2023-04-04T12:08:02.382Z,4.23
2023-04-04T12:10:34.102Z,4.27
2023-04-04T12:13:03.077Z,4.28
2023-04-04T12:15:33.334Z,4.27
2023-04-04T12:18:02.622Z,4.29
2023-04-04T12:20:31.212Z,4.38
2023-04-04T12:22:59.468Z,4.46
2023-04-04T12:25:29.623Z,4.45
2023-04-04T12:27:58.802Z,4.48
2023-04-04T12:32:29.920Z,4.50
2023-04-04T12:35:01.634Z,4.41
2023-04-04T12:37:30.426Z,4.36
2023-04-04T12:39:58.617Z,4.38
2023-04-04T12:42:27.284Z,4.40
2023-04-04T12:44:55.514Z,4.34
2023-04-04T12:47:26.441Z,4.28
2023-04-04T12:49:55.984Z,4.31
2023-04-04T12:52:29.658Z,4.36
2023-04-04T12:55:08.058Z,4.35
2023-04-04T12:57:39.527Z,4.39
2023-04-04T13:00:09.491Z,4.43
2023-04-04T13:02:38.781Z,4.40
2023-04-04T13:05:08.008Z,4.40
2023-04-04T13:07:44.597Z,4.47
2023-04-04T13:10:15.042Z,4.49
2023-04-04T13:13:00.592Z,4.52
2023-04-04T13:16:08.442Z,4.59
2023-04-04T13:18:38.687Z,4.61
2023-04-04T13:21:08.039Z,4.58
2023-04-04T13:23:39.476Z,4.63
2023-04-04T13:26:09.282Z,4.69
2023-04-04T13:28:37.973Z,4.72
2023-04-04T13:31:08.793Z,4.81
2023-04-04T13:33:37.860Z,4.82
2023-04-04T13:36:06.252Z,4.86
2023-04-04T13:38:37.170Z,4.98
2023-04-04T13:41:05.529Z,4.96
2023-04-04T13:43:35.463Z,4.93
2023-04-04T13:46:03.610Z,4.96
2023-04-04T13:48:32.380Z,4.92
2023-04-04T13:51:01.457Z,4.90
2023-04-04T13:53:29.603Z,4.90
2023-04-04T13:56:16.987Z,4.86
2023-04-04T13:58:46.544Z,4.81
2023-04-04T14:01:14.737Z,4.81
2023-04-04T14:03:44.156Z,4.79
2023-04-04T14:06:12.709Z,4.77
2023-04-04T14:08:41.130Z,4.80
2023-04-04T14:11:11.183Z,4.84
2023-04-04T14:13:40.253Z,4.80
2023-04-04T14:16:08.716Z,4.76
2023-04-04T14:18:37.052Z,4.84
2023-04-04T14:21:05.654Z,4.83
2023-04-04T14:23:33.809Z,4.75
2023-04-04T14:26:02.197Z,4.75
2023-04-04T14:28:32.149Z,4.71
2023-04-04T14:31:00.477Z,4.61
2023-04-04T14:33:29.298Z,4.62
2023-04-04T14:35:57.658Z,4.63
2023-04-04T14:38:25.881Z,4.56
2023-04-04T14:40:54.786Z,4.55
2023-04-04T14:43:23.653Z,4.58
2023-04-04T14:45:52.864Z,4.52
2023-04-04T14:48:22.034Z,4.46
2023-04-04T14:50:50.496Z,4.51
2023-04-04T14:53:21.326Z,4.54
2023-04-04T14:55:49.450Z,4.51
2023-04-04T14:58:19.449Z,4.57
2023-04-04T15:00:48.319Z,4.56
2023-04-04T15:03:17.305Z,4.53
2023-04-04T15:05:46.559Z,4.55
2023-04-04T15:08:15.492Z,4.58
2023-04-04T15:10:43.757Z,4.57
2023-04-04T15:13:13.970Z,4.60
2023-04-04T15:15:43.073Z,4.58
2023-04-04T15:18:11.449Z,4.53
2023-04-04T15:20:42.141Z,4.52
2023-04-04T15:23:11.210Z,4.44
2023-04-04T15:25:39.863Z,4.39
2023-04-04T15:28:08.551Z,4.43
2023-04-04T15:30:37.078Z,4.40
2023-04-04T15:33:06.378Z,4.39
2023-04-04T15:35:34.859Z,4.46
2023-04-04T15:38:03.340Z,4.42
2023-04-04T15:40:31.885Z,4.42
2023-04-04T15:43:00.131Z,4.44
2023-04-04T15:45:28.611Z,4.38
2023-04-04T15:47:56.817Z,4.43
2023-04-04T15:50:26.282Z,4.44
2023-04-04T15:52:54.429Z,4.39
2023-04-04T15:55:24.556Z,4.35
2023-04-04T15:57:53.010Z,4.30
2023-04-04T16:00:21.469Z,4.33
2023-04-04T16:02:50.035Z,4.31
2023-04-04T16:05:19.410Z,4.26
2023-04-04T16:07:47.519Z,4.30
2023-04-04T16:10:17.340Z,4.28
2023-04-04T16:12:46.245Z,4.25
2023-04-04T16:15:14.679Z,4.24
2023-04-04T16:17:45.189Z,4.20
2023-04-04T16:20:13.814Z,4.19
2023-04-04T16:22:42.074Z,4.17
2023-04-04T16:25:10.304Z,4.12
2023-04-04T16:27:38.609Z,4.14
2023-04-04T16:30:08.667Z,4.11
2023-04-04T16:32:37.573Z,4.12
2023-04-04T16:35:06.598Z,4.14
2023-04-04T16:37:37.404Z,4.09
2023-04-04T16:40:06.979Z,4.07
2023-04-04T16:42:35.578Z,4.09
2023-04-04T16:45:04.102Z,4.07
2023-04-04T16:47:32.758Z,4.00
2023-04-04T16:50:01.388Z,4.02
2023-04-04T16:52:29.896Z,3.97
2023-04-04T16:54:58.344Z,3.88
2023-04-04T16:57:26.887Z,3.89
2023-04-04T16:59:55.272Z,3.83
2023-04-04T17:02:23.413Z,3.79
2023-04-04T17:04:52.332Z,3.78
2023-04-04T17:07:21.102Z,3.71
2023-04-04T17:09:51.580Z,3.72
2023-04-04T17:12:24.081Z,3.71
2023-04-04T17:14:53.856Z,3.67
2023-04-04T17:17:22.201Z,3.68
2023-04-04T17:19:50.264Z,3.65
2023-04-04T17:22:18.582Z,3.66
2023-04-04T17:24:46.999Z,3.67
2023-04-04T17:27:15.319Z,3.66
2023-04-04T17:29:44.069Z,3.67
2023-04-04T17:32:12.549Z,3.67
2023-04-04T17:34:42.154Z,3.67
2023-04-04T17:37:11.739Z,3.65
2023-04-04T17:39:40.170Z,3.66
2023-04-04T17:42:08.368Z,3.61
2023-04-04T17:44:37.266Z,3.57
2023-04-04T17:47:05.969Z,3.57
2023-04-04T17:49:39.928Z,3.52
2023-04-04T17:52:08.867Z,3.50
2023-04-04T17:54:37.541Z,3.50
2023-04-04T17:57:07.407Z,3.49
2023-04-04T17:59:36.216Z,3.48
2023-04-04T18:02:06.409Z,3.41
2023-04-04T18:04:35.182Z,3.40
2023-04-04T18:07:03.686Z,3.42
2023-04-04T18:09:35.122Z,3.39
2023-04-04T18:12:06.991Z,3.37
2023-04-04T18:14:35.361Z,3.32
2023-04-04T18:17:05.809Z,3.34
2023-04-04T18:19:35.282Z,3.35
2023-04-04T18:22:04.328Z,3.31
2023-04-04T18:24:36.568Z,3.28
2023-04-04T18:27:05.041Z,3.23
2023-04-04T18:29:33.361Z,3.22
2023-04-04T18:32:02.746Z,3.22
2023-04-04T18:34:31.650Z,3.21
2023-04-04T18:36:59.745Z,3.19
2023-04-04T18:39:28.203Z,3.17
2023-04-04T18:41:57.709Z,3.19
2023-04-04T18:44:26.429Z,3.21
2023-04-04T18:46:58.398Z,3.18
2023-04-04T18:49:27.198Z,3.21
2023-04-04T18:51:55.476Z,3.26
2023-04-04T18:54:27.254Z,3.25
2023-04-04T18:56:57.675Z,3.29
2023-04-04T18:59:26.627Z,3.32
2023-04-04T19:02:00.992Z,3.30
2023-04-04T19:04:35.169Z,3.32
2023-04-04T19:07:06.688Z,3.33
2023-04-04T19:09:36.041Z,3.31
2023-04-04T19:12:10.881Z,3.29
2023-04-04T19:14:39.033Z,3.28
2023-04-04T19:17:08.077Z,3.24
2023-04-04T19:19:36.852Z,3.22
2023-04-04T19:22:05.301Z,3.20
2023-04-04T19:24:33.876Z,3.11
2023-04-04T19:27:05.477Z,3.14
2023-04-04T19:29:35.666Z,3.14
2023-04-04T19:32:15.066Z,3.16
2023-04-04T19:34:44.239Z,3.15
2023-04-04T19:37:19.482Z,3.08
2023-04-04T19:39:50.153Z,2.99
2023-04-04T19:42:19.822Z,2.95
2023-04-04T19:44:48.206Z,2.93
2023-04-04T19:47:18.228Z,2.90
2023-04-04T19:49:46.507Z,2.85
2023-04-04T19:52:24.038Z,2.82
2023-04-04T19:54:52.668Z,2.76
2023-04-04T19:57:21.152Z,2.76
2023-04-04T20:00:01.917Z,2.79
2023-04-04T20:02:34.088Z,2.77
2023-04-04T20:05:02.811Z,2.70
2023-04-04T20:07:31.843Z,2.70
2023-04-04T20:10:00.265Z,2.68
2023-04-04T20:12:32.480Z,2.65
2023-04-04T20:15:01.236Z,2.64
2023-04-04T20:17:30.539Z,2.58
2023-04-04T20:19:58.621Z,2.51
2023-04-04T20:22:27.264Z,2.55
2023-04-04T20:24:55.423Z,2.59
2023-04-04T20:27:25.268Z,2.52
2023-04-04T20:29:53.996Z,2.50
2023-04-04T20:32:22.331Z,2.50
2023-04-04T20:34:50.836Z,2.49
2023-04-04T20:38:17.290Z,2.49
2023-04-04T20:41:10.143Z,2.44
2023-04-04T20:43:38.711Z,2.28
2023-04-04T20:46:07.037Z,2.25
2023-04-04T20:48:38.955Z,2.27
2023-04-04T20:51:15.762Z,2.22
2023-04-04T20:53:52.102Z,2.22
2023-04-04T20:56:33.268Z,2.23
2023-04-04T20:59:01.455Z,2.17
2023-04-04T21:01:29.928Z,2.19
2023-04-04T21:03:58.695Z,2.18
2023-04-04T21:06:29.920Z,2.10
2023-04-04T21:08:57.851Z,2.05
2023-04-04T21:11:30.562Z,2.05
2023-04-04T21:13:58.919Z,1.98
2023-04-04T21:16:27.588Z,2.00
2023-04-04T21:18:58.935Z,2.02
2023-04-04T21:21:27.506Z,2.02
2023-04-04T21:23:59.415Z,2.05
2023-04-04T21:26:32.830Z,2.06
2023-04-04T21:29:07.559Z,2.05
2023-04-04T21:31:40.683Z,2.02
2023-04-04T21:34:13.307Z,2.02
2023-04-04T21:36:41.847Z,2.04
2023-04-04T21:39:10.963Z,2.01
2023-04-04T21:41:39.302Z,2.03
2023-04-04T21:44:08.725Z,2.07
2023-04-04T21:46:37.852Z,2.07
2023-04-04T21:49:07.126Z,2.09
2023-04-04T21:51:35.883Z,2.10
2023-04-04T21:54:04.357Z,2.09
2023-04-04T21:56:33.588Z,2.08
2023-04-04T21:59:05.027Z,2.07
2023-04-04T22:01:33.106Z,2.07
2023-04-04T22:04:06.428Z,2.05
2023-04-04T22:06:34.866Z,2.07
2023-04-04T22:09:03.088Z,2.04
2023-04-04T22:11:34.830Z,2.08
2023-04-04T22:14:03.802Z,2.11
2023-04-04T22:16:32.540Z,2.13
2023-04-04T22:19:03.842Z,2.06
2023-04-04T22:21:36.762Z,2.08
2023-04-04T22:24:06.326Z,2.08
2023-04-04T22:26:34.713Z,2.09
2023-04-04T22:29:04.058Z,2.06
2023-04-04T22:31:34.874Z,2.07
2023-04-04T22:34:03.750Z,2.10
2023-04-04T22:36:34.473Z,2.14
2023-04-04T22:39:02.995Z,2.14
2023-04-04T22:41:31.418Z,2.12
2023-04-04T22:43:59.481Z,2.11
2023-04-04T22:46:29.318Z,2.11
2023-04-04T22:49:06.487Z,2.11
2023-04-04T22:51:43.326Z,2.11
2023-04-04T22:54:16.084Z,2.11
2023-04-04T22:56:44.807Z,2.11
2023-04-04T22:59:15.687Z,2.12
2023-04-04T23:01:44.876Z,2.20
2023-04-04T23:04:14.527Z,2.23
2023-04-04T23:06:44.953Z,2.19
2023-04-04T23:09:13.058Z,2.21
2023-04-04T23:11:41.083Z,2.24
2023-04-04T23:14:14.763Z,2.28
2023-04-04T23:16:44.287Z,2.22
2023-04-04T23:19:12.674Z,2.20
2023-04-04T23:21:40.879Z,2.22
2023-04-04T23:24:08.959Z,2.18
2023-04-04T23:26:36.893Z,2.17
2023-04-04T23:29:05.839Z,2.17
2023-04-04T23:31:34.078Z,2.12
2023-04-04T23:34:03.145Z,2.10
2023-04-04T23:36:32.364Z,2.08
2023-04-04T23:39:00.784Z,2.10
2023-04-04T23:41:29.353Z,2.11
2023-04-04T23:43:57.700Z,2.05
2023-04-04T23:46:26.813Z,2.04
2023-04-04T23:48:55.204Z,2.06
2023-04-04T23:51:26.382Z,2.05
2023-04-04T23:53:54.945Z,2.00
2023-04-04T23:56:23.744Z,1.99
2023-04-04T23:58:51.876Z,2.05
